Latest Weather Observations for Kingscote

IDS60801

Issued at 1:31 pm CST Sunday 2 August 2015 (issued every 30 minutes, with the page automatically refreshed every 10 minutes)

About weather observations | Map of weather stations | Latest weather observations for SA | Other Formats
Station Details ID: 022841 Name: KINGSCOTE AERO Lat: -35.71 Lon: 137.52 Height: 6.23 m
Data from the previous 72 hours. | See also: Recent months at Kingscote
Date/Time
CST
Temp
°C
App
Temp
°C
Dew
Point
Rel
Hum
%
Delta-T
°C
Wind Press
QNH
hPa
Press
MSL
hPa
Rain
since 9 am
mm
Dir
 
Spd
km/h
Gust
km/h
Spd
kts
Gust
kts
02/01:30pm 15.5 9.8 8.3 62 3.6 WSW 28 39 15 21 1018.0 1018.0 0.0
02/01:00pm 13.0 6.7 8.9 76 2.1 WSW 32 50 17 27 1018.4 1018.4 0.0
02/12:58pm 12.7 5.7 8.6 76 2.0 WSW 35 54 19 29 1018.4 1018.4 0.0
02/12:30pm 15.1 7.8 7.4 60 3.8 WSW 35 46 19 25 1018.3 1018.3 0.0
02/12:03pm 15.4 8.7 8.2 62 3.6 W 33 52 18 28 1018.6 1018.6 0.0
02/12:00pm 15.0 7.7 7.3 60 3.8 W 35 52 19 28 1018.6 1018.6 0.0
02/11:46am 14.8 8.0 6.9 59 3.9 W 32 50 17 27 1018.7 1018.7 0.0
02/11:30am 14.2 9.3 8.4 68 2.9 W 24 33 13 18 1019.0 1019.0 0.0
02/11:14am 12.3 6.0 9.0 80 1.7 W 32 50 17 27 1019.3 1019.3 0.0
02/11:00am 13.3 7.0 7.5 68 2.8 W 30 46 16 25 1019.1 1019.1 0.0
02/10:30am 13.3 7.1 7.7 69 2.7 W 30 41 16 22 1019.1 1019.1 0.0
02/10:00am 12.9 7.5 8.0 72 2.4 W 26 37 14 20 1019.0 1019.0 0.0
02/09:30am 11.8 6.3 7.5 75 2.1 W 26 39 14 21 1019.0 1019.0 0.0
02/09:00am 10.5 6.0 7.0 79 1.7 W 20 28 11 15 1019.1 1019.1 0.0
02/08:30am 8.7 5.4 6.5 86 1.0 W 13 20 7 11 1019.2 1019.2 0.0
02/08:00am 7.1 4.0 5.6 90 0.7 WNW 11 13 6 7 1018.9 1018.9 0.0
02/07:30am 5.9 2.2 4.2 89 0.7 WNW 13 15 7 8 1018.7 1018.7 0.0
02/07:00am 6.1 2.0 4.1 87 0.9 WNW 15 17 8 9 1018.4 1018.4 0.0
02/06:30am 6.0 1.6 4.5 90 0.6 W 17 19 9 10 1018.2 1018.2 0.0
02/06:00am 4.3 0.7 2.8 90 0.6 WNW 11 11 6 6 1018.1 1018.1 0.0
02/05:30am 5.0 1.5 3.5 90 0.6 WNW 11 13 6 7 1017.9 1017.9 0.0
02/05:00am 5.7 1.9 3.7 87 0.8 W 13 17 7 9 1017.9 1017.9 0.0
02/04:30am 5.4 1.9 3.7 89 0.7 W 11 13 6 7 1017.8 1017.8 0.0
02/04:00am 5.7 2.3 4.2 90 0.6 W 11 13 6 7 1017.9 1017.9 0.0
02/03:30am 5.9 2.9 4.2 89 0.7 WSW 9 15 5 8 1018.1 1018.1 0.0
02/03:00am 7.2 3.9 4.7 84 1.1 W 11 15 6 8 1018.3 1018.3 0.0
02/02:30am 8.7 3.1 5.4 80 1.5 WSW 24 37 13 20 1018.3 1018.3 0.0
02/02:00am 7.8 4.5 4.4 79 1.5 W 11 17 6 9 1018.4 1018.4 0.0
02/01:30am 7.6 4.3 4.6 81 1.3 W 11 17 6 9 1018.6 1018.6 0.0
02/01:00am 7.9 5.9 4.3 78 1.6 NW 4 9 2 5 1018.7 1018.7 0.0
02/12:30am 8.1 4.4 4.3 77 1.7 WNW 13 15 7 8 1018.8 1018.8 0.0
02/12:00am 7.6 4.7 4.6 81 1.3 W 9 13 5 7 1018.9 1018.9 0.0
 
Date/Time
CST
Temp
°C
App
Temp
°C
Dew
Point
Rel
Hum
%
Delta-T
°C
Wind Press
QNH
hPa
Press
MSL
hPa
Rain
since 9 am
mm
Dir
 
Spd
km/h
Gust
km/h
Spd
kts
Gust
kts
01/11:30pm 7.1 4.2 4.4 83 1.2 W 9 13 5 7 1018.9 1018.9 0.0
01/11:00pm 7.0 3.7 4.5 84 1.1 WNW 11 13 6 7 1019.0 1019.0 0.0
01/10:30pm 7.1 4.2 4.6 84 1.1 W 9 11 5 6 1018.8 1018.8 0.0
01/10:00pm 7.1 4.3 5.1 87 0.9 W 9 11 5 6 1018.8 1018.8 0.0
01/09:30pm 6.8 3.9 4.8 87 0.9 W 9 9 5 5 1018.9 1018.9 0.0
01/09:00pm 7.1 4.2 4.8 85 1.0 W 9 11 5 6 1018.7 1018.7 0.0
01/08:30pm 7.4 4.6 5.0 85 1.1 W 9 9 5 5 1018.6 1018.6 0.0
01/08:00pm 7.9 5.4 5.0 82 1.3 W 7 9 4 5 1018.3 1018.3 0.0
01/07:30pm 8.0 5.3 5.5 84 1.1 WSW 9 11 5 6 1018.2 1018.2 0.0
01/07:00pm 8.1 5.1 6.1 87 0.9 WSW 11 11 6 6 1017.9 1017.9 0.0
01/06:30pm 8.1 5.4 5.7 85 1.1 SW 9 11 5 6 1017.3 1017.3 0.0
01/06:00pm 8.5 7.6 6.1 85 1.1 CALM 0 0 0 0 1017.2 1017.2 0.0
01/05:30pm 9.1 8.2 6.2 82 1.3 CALM 0 0 0 0 1017.3 1017.3 0.0
01/05:00pm 9.5 8.7 6.4 81 1.4 CALM 0 0 0 0 1016.7 1016.7 0.0
01/04:30pm 10.2 9.4 6.7 79 1.6 CALM 0 0 0 0 1016.6 1016.6 0.0
01/04:00pm 10.5 9.6 6.1 74 2.0 CALM 0 0 0 0 1016.4 1016.4 0.0
01/03:30pm 10.6 9.6 5.8 72 2.2 CALM 0 0 0 0 1016.6 1016.6 0.0
01/03:00pm 10.8 8.0 5.1 68 2.6 SSE 9 11 5 6 1016.2 1016.2 0.0
01/02:30pm 11.0 8.1 4.9 66 2.8 SSE 9 13 5 7 1016.5 1016.5 0.0
01/02:00pm 11.1 7.9 5.2 67 2.7 S 11 15 6 8 1016.6 1016.6 0.0
01/01:30pm 11.2 8.0 5.1 66 2.8 S 11 15 6 8 1016.2 1016.2 0.0
01/01:00pm 11.3 9.0 5.6 68 2.6 SSW 7 9 4 5 1017.2 1017.2 0.0
01/12:30pm 11.2 8.6 6.3 72 2.3 SSW 9 13 5 7 1017.6 1017.6 0.0
01/12:00pm 11.0 7.9 5.7 70 2.4 S 11 15 6 8 1017.7 1017.7 0.0
01/11:30am 10.9 8.6 5.9 71 2.3 WSW 7 11 4 6 1018.3 1018.3 0.0
01/11:00am 10.8 7.9 6.6 75 2.0 SW 11 15 6 8 1018.3 1018.3 0.0
01/10:30am 10.9 8.9 7.0 77 1.8 SSW 7 11 4 6 1017.3 1017.3 0.0
01/10:00am 10.4 7.9 6.5 77 1.8 S 9 11 5 6 1017.0 1017.0 0.0
01/09:30am 10.3 7.9 6.8 79 1.6 SSW 9 11 5 6 1017.3 1017.3 0.0
01/09:00am 9.8 7.4 6.9 82 1.4 S 9 11 5 6 1017.1 1017.1 2.2
01/08:30am 9.3 7.4 7.7 90 0.8 S 7 9 4 5 1016.5 1016.5 2.2
01/08:00am 9.1 7.4 7.7 91 0.7 SSW 6 7 3 4 1016.3 1016.3 2.2
01/07:30am 9.0 7.2 7.8 92 0.6 SW 7 9 4 5 1016.2 1016.2 2.2
01/07:00am 9.2 7.3 7.6 90 0.8 SW 7 9 4 5 1015.9 1015.9 2.2
01/06:30am 9.6 7.4 7.9 89 0.8 SSW 9 11 5 6 1015.2 1015.2 2.2
01/06:00am 9.8 6.9 8.2 90 0.8 S 13 17 7 9 1014.4 1014.4 2.2
01/05:30am 10.2 6.3 8.6 90 0.8 S 19 26 10 14 1014.0 1014.0 2.2
01/05:00am 10.2 6.7 8.8 91 0.7 SSW 17 28 9 15 1014.0 1014.0 2.2
01/04:35am 10.2 6.5 9.3 94 0.4 SSW 19 24 10 13 1013.5 1013.5 2.2
01/04:30am 10.3 6.4 9.4 94 0.4 SSW 20 28 11 15 1013.4 1013.4 2.2
01/04:25am 10.3 6.0 9.4 94 0.4 SSW 22 32 12 17 1013.3 1013.3 2.2
01/04:13am 10.5 5.5 9.6 94 0.5 SSW 26 33 14 18 1013.2 1013.2 2.2
01/04:00am 10.9 6.4 10.0 94 0.5 SSW 24 32 13 17 1013.0 1013.0 2.2
01/03:40am 11.0 7.2 9.9 93 0.6 SSW 20 33 11 18 1012.3 1012.3 2.2
01/03:30am 10.7 7.8 9.6 93 0.6 SW 15 20 8 11 1012.5 1012.5 2.2
01/03:00am 10.9 7.7 10.0 94 0.5 SW 17 20 9 11 1012.2 1012.2 2.2
01/02:30am 10.8 7.7 10.2 96 0.3 SW 17 22 9 12 1012.2 1012.2 2.0
01/02:18am 10.9 7.8 10.3 96 0.3 SW 17 24 9 13 1012.5 1012.5 2.0
01/02:00am 11.1 7.5 10.5 96 0.3 SW 20 30 11 16 1012.4 1012.4 2.0
01/01:53am 11.2 7.2 10.4 95 0.4 SW 22 30 12 16 1012.3 1012.3 1.8
01/01:30am 12.8 7.5 11.2 90 0.8 WNW 30 48 16 26 1011.5 1011.5 0.2
01/01:22am 14.0 9.5 12.6 91 0.8 NW 28 37 15 20 1010.8 1010.8 0.2
01/01:00am 13.9 10.1 12.3 90 0.9 NW 24 35 13 19 1010.7 1010.7 0.2
01/12:30am 13.6 9.3 12.2 91 0.8 NW 26 39 14 21 1010.8 1010.8 0.2
01/12:00am 13.5 9.2 12.1 91 0.8 NW 26 35 14 19 1010.8 1010.8 0.2
 
Date/Time
CST
Temp
°C
App
Temp
°C
Dew
Point
Rel
Hum
%
Delta-T
°C
Wind Press
QNH
hPa
Press
MSL
hPa
Rain
since 9 am
mm
Dir
 
Spd
km/h
Gust
km/h
Spd
kts
Gust
kts
31/11:30pm 13.3 9.4 12.0 92 0.7 NW 24 32 13 17 1011.2 1011.2 0.2
31/11:07pm 13.7 8.9 11.7 88 1.1 NW 28 35 15 19 1011.2 1011.2 0.0
31/11:00pm 13.8 8.6 11.7 87 1.1 NW 30 43 16 23 1011.3 1011.3 0.0
31/10:50pm 14.0 9.1 11.3 84 1.4 NNW 28 50 15 27 1011.3 1011.3 0.0
31/10:30pm 13.8 8.8 11.0 83 1.5 NNW 28 39 15 21 1011.3 1011.3 0.0
31/10:00pm 13.5 10.0 10.9 84 1.4 NNW 20 28 11 15 1011.5 1011.5 0.0
31/09:30pm 13.3 10.3 10.7 84 1.4 NNW 17 24 9 13 1011.7 1011.7 0.0
31/09:00pm 13.1 10.1 10.6 85 1.3 N 17 24 9 13 1012.1 1012.1 0.0
31/08:30pm 12.9 10.6 10.6 86 1.2 N 13 19 7 10 1012.7 1012.7 0.0
31/08:00pm 12.8 10.9 10.5 86 1.2 NNW 11 15 6 8 1013.1 1013.1 0.0
31/07:30pm 12.9 10.3 10.6 86 1.2 N 15 22 8 12 1012.8 1012.8 0.0
31/07:00pm 12.9 10.3 10.8 87 1.1 N 15 22 8 12 1012.8 1012.8 0.0
31/06:30pm 13.0 10.5 11.1 88 1.0 N 15 22 8 12 1013.1 1013.1 0.0
31/06:00pm 13.0 10.8 10.7 86 1.2 N 13 20 7 11 1013.2 1013.2 0.0
31/05:30pm 13.1 10.7 10.1 82 1.5 N 13 17 7 9 1013.4 1013.4 0.0
31/05:00pm 13.3 10.4 9.7 79 1.8 N 15 22 8 12 1013.2 1013.2 0.0
31/04:30pm 13.8 10.5 9.5 75 2.2 NNW 17 24 9 13 1013.6 1013.6 0.0
31/04:00pm 14.1 9.9 8.3 68 2.9 NW 20 30 11 16 1013.9 1013.9 0.0
31/03:30pm 14.0 10.0 8.2 68 2.9 NNW 19 26 10 14 1014.3 1014.3 0.0
31/03:00pm 14.7 10.7 8.4 66 3.2 NW 19 32 10 17 1014.8 1014.8 0.0
31/02:30pm 13.9 9.0 7.0 63 3.3 NW 22 33 12 18 1015.4 1015.4 0.0
31/02:00pm 13.1 7.4 6.5 64 3.2 NNW 26 35 14 19 1015.5 1015.5 0.0
31/01:30pm 13.7 8.4 6.8 63 3.3 NNW 24 37 13 20 1015.9 1015.9 0.0
31/01:00pm 12.7 7.7 6.5 66 3.0 NNW 22 35 12 19 1016.7 1016.7 0.0
31/12:30pm 12.6 7.9 6.2 65 3.0 NNW 20 32 11 17 1017.4 1017.4 0.0
31/12:00pm 12.2 6.9 5.1 62 3.3 NNW 22 33 12 18 1018.4 1018.4 0.0
31/11:30am 12.2 6.5 5.1 62 3.3 NNW 24 33 13 18 1018.9 1018.9 0.0
31/11:00am 12.2 7.4 5.6 64 3.1 NNW 20 35 11 19 1019.3 1019.3 0.0
31/10:30am 10.2 9.3 6.2 76 1.8 CALM 0 9 0 5 1019.8 1019.8 0.0
31/10:00am 7.5 6.5 5.8 89 0.8 CALM 0 0 0 0 1020.2 1020.2 0.0
31/09:30am 5.7 4.5 4.8 94 0.4 CALM 0 2 0 1 1020.4 1020.4 0.0
31/09:00am 4.0 2.6 3.4 96 0.2 CALM 0 0 0 0 1020.7 1020.7 0.6
31/08:30am 2.9 1.3 2.5 97 0.2 CALM 0 0 0 0 1021.1 1021.1 0.6
31/08:00am 1.0 -0.9 0.6 97 0.1 CALM 0 0 0 0 1021.2 1021.2 0.6
31/07:30am 0.7 -1.3 0.1 96 0.2 CALM 0 0 0 0 1021.1 1021.1 0.6
31/07:00am 0.5 -1.5 -0.1 96 0.2 CALM 0 0 0 0 1021.2 1021.2 0.6
31/06:30am 0.7 -1.3 0.1 96 0.2 CALM 0 0 0 0 1021.1 1021.1 0.6
31/06:00am 1.3 -0.6 0.7 96 0.2 CALM 0 0 0 0 1021.1 1021.1 0.6
31/05:30am 1.6 -0.2 0.9 95 0.3 CALM 0 0 0 0 1021.1 1021.1 0.6
31/05:00am 2.1 0.3 1.4 95 0.3 CALM 0 0 0 0 1021.3 1021.3 0.6
31/04:30am 2.4 0.7 1.7 95 0.3 CALM 0 0 0 0 1021.2 1021.2 0.6
31/04:00am 2.8 1.1 1.8 93 0.4 CALM 0 0 0 0 1021.1 1021.1 0.6
31/03:30am 3.4 1.8 2.2 92 0.5 CALM 0 0 0 0 1021.7 1021.7 0.6
31/03:00am 4.7 3.3 3.4 91 0.5 CALM 0 0 0 0 1021.7 1021.7 0.6
31/02:30am 5.2 3.7 3.2 87 0.8 CALM 0 0 0 0 1022.1 1022.1 0.6
31/02:00am 6.6 5.4 4.4 86 0.9 CALM 0 0 0 0 1022.2 1022.2 0.6
31/01:30am 6.8 5.6 4.8 87 0.9 CALM 0 0 0 0 1022.5 1022.5 0.6
31/01:00am 6.7 5.5 4.7 87 0.9 CALM 0 0 0 0 1022.5 1022.5 0.6
31/12:30am 7.2 6.0 4.7 84 1.1 CALM 0 0 0 0 1022.6 1022.6 0.6
31/12:00am 7.5 6.3 4.6 82 1.3 CALM 0 0 0 0 1022.8 1022.8 0.6
 
Date/Time
CST
Temp
°C
App
Temp
°C
Dew
Point
Rel
Hum
%
Delta-T
°C
Wind Press
QNH
hPa
Press
MSL
hPa
Rain
since 9 am
mm
Dir
 
Spd
km/h
Gust
km/h
Spd
kts
Gust
kts
30/11:30pm 7.4 6.3 5.2 86 1.0 CALM 0 0 0 0 1022.8 1022.8 0.6
30/11:00pm 7.2 5.0 5.2 87 0.9 SW 6 11 3 6 1022.8 1022.8 0.6
30/10:30pm 7.1 4.6 4.9 86 1.0 NW 7 13 4 7 1022.7 1022.7 0.6
30/10:00pm 6.7 4.2 4.5 86 1.0 WSW 7 9 4 5 1022.7 1022.7 0.6
30/09:30pm 7.6 5.3 5.6 87 0.9 SW 7 9 4 5 1022.6 1022.6 0.6
30/09:00pm 7.5 4.8 5.5 87 0.9 SW 9 11 5 6 1022.3 1022.3 0.6
30/08:30pm 7.2 4.7 5.0 86 1.0 SW 7 9 4 5 1021.8 1021.8 0.6
30/08:00pm 7.4 4.2 5.0 85 1.1 WSW 11 13 6 7 1021.4 1021.4 0.6
30/07:30pm 8.3 5.5 5.2 81 1.4 SSW 9 9 5 5 1020.9 1020.9 0.6
30/07:00pm 9.8 6.4 5.8 76 1.8 SSW 13 17 7 9 1020.4 1020.4 0.6
30/06:30pm 11.2 6.8 6.7 74 2.1 SSW 19 24 10 13 1020.0 1020.0 0.6
30/06:00pm 11.8 6.8 8.1 78 1.8 SSW 24 32 13 17 1019.6 1019.6 0.6
30/05:30pm 12.1 8.2 8.8 80 1.6 SW 19 30 10 16 1019.1 1019.1 0.6
30/05:00pm 12.4 8.1 9.2 81 1.6 SSW 22 28 12 15 1018.7 1018.7 0.6
30/04:30pm 12.3 8.6 10.0 86 1.2 SSW 20 26 11 14 1018.1 1018.1 0.6
30/04:21pm 12.3 8.2 10.2 87 1.1 SW 22 33 12 18 1017.9 1017.9 0.6
30/04:03pm 12.0 6.4 10.2 89 0.9 SSW 30 39 16 21 1017.8 1017.8 0.6
30/04:00pm 12.3 6.8 10.7 90 0.8 SW 30 39 16 21 1017.8 1017.8 0.6
30/03:30pm 12.5 7.2 11.4 93 0.6 SSW 30 44 16 24 1017.2 1017.2 0.6
30/03:21pm 13.4 7.8 11.5 88 1.0 SW 32 56 17 30 1016.9 1016.9 0.4
30/03:17pm 14.2 9.4 10.4 78 2.0 WSW 26 56 14 30 1016.7 1016.7 0.2
30/03:00pm 16.4 12.5 10.7 69 3.0 WSW 22 35 12 19 1016.1 1016.1 0.2
30/02:30pm 16.6 11.5 10.5 67 3.2 WSW 28 37 15 20 1015.9 1015.9 0.2
30/02:00pm 18.6 13.2 10.9 61 4.2 W 30 41 16 22 1015.6 1015.6 0.2

Other Formats:

Comma delimited format used in spreadsheet applications
http://www.bom.gov.au/fwo/IDS60801/IDS60801.95807.axf

JavaScript Object Notation format (JSON) in row-major order
http://www.bom.gov.au/fwo/IDS60801/IDS60801.95807.json